Dornoch, United Kingdom
Current Conditions -  °F | °C
As of 3:50 PM on Monday 26 Jan 2015 (Local Time) from EGQK Reporting Station
Scattered Clouds Scattered Clouds  
Wind Chill: 33°   Ceiling: Unl
Heat Index: 41°   Visibility: 6mi
Dew Point: 36°   Wind: 16mph
Humidity: 81%   Direction: 270°W
Pressure: 30.03"   Gusts: NA
Location:  57.88°N, 4.03°W
Report Text: EGQK 261550Z 27014KT 9999 FEW020 SCT070 05/02 Q1017 BLU
Loading
Personal Weather Stations






























Interactive Weather Map New forecast layout! Learn more

10-Day Weather Forecast

Advertisements
Track Severe Weather on mobile